Time;durP1;ratioP1;P1;durP2;ratioP2;P2;SDS_P1;SDS_P2;PMS_P1;PMS_P2;Temp;Humidity;BMP_temperature;BMP_pressure;BME280_temperature;BME280_humidity;BME280_pressure;Samples;Min_cycle;Max_cycle;Signal;HPM_P1;HPM_P2
2022/04/21 00:01:29;;;;;;;10.93;6.00;;;12.40;92.50;;;;;;5070395;28;20021;-56
2022/04/21 00:03:55;;;;;;;7.43;5.82;;;12.40;92.50;;;;;;5069652;28;20036;-56
2022/04/21 00:06:20;;;;;;;7.47;5.78;;;12.40;92.70;;;;;;5070019;28;20032;-56
2022/04/21 00:08:46;;;;;;;12.05;5.97;;;12.40;92.80;;;;;;5070353;28;20028;-57
2022/04/21 00:11:11;;;;;;;10.70;6.07;;;12.40;92.80;;;;;;5069976;28;20060;-57
2022/04/21 00:13:37;;;;;;;11.02;6.00;;;12.40;92.80;;;;;;5070316;28;20032;-56
2022/04/21 00:16:03;;;;;;;8.20;5.97;;;12.30;93.00;;;;;;5070395;28;20478;-56
2022/04/21 00:18:29;;;;;;;11.05;6.35;;;12.30;93.20;;;;;;5069712;28;20020;-56
2022/04/21 00:20:54;;;;;;;9.93;6.35;;;12.30;93.30;;;;;;5070164;28;20115;-57
2022/04/21 00:23:26;;;;;;;10.50;6.45;;;12.20;93.40;;;;;;5070047;28;20031;-56
2022/04/21 00:25:53;;;;;;;11.00;6.75;;;12.20;93.60;;;;;;5070317;28;20476;-56
2022/04/21 00:28:19;;;;;;;8.75;6.38;;;12.20;93.70;;;;;;5069902;28;20091;-56
2022/04/21 00:30:44;;;;;;;6.75;5.47;;;12.10;93.70;;;;;;5070219;28;20170;-56
2022/04/21 00:33:10;;;;;;;9.93;5.93;;;12.10;93.90;;;;;;5068509;28;20039;-56
2022/04/21 00:35:35;;;;;;;11.18;6.00;;;12.10;94.00;;;;;;5069931;28;20366;-56
2022/04/21 00:38:01;;;;;;;10.38;6.63;;;12.10;94.10;;;;;;5068998;28;20099;-56
2022/04/21 00:40:29;;;;;;;8.35;6.25;;;12.00;94.30;;;;;;5069720;28;20038;-56
2022/04/21 00:42:55;;;;;;;11.23;6.22;;;12.00;94.40;;;;;;5069941;28;20048;-56
2022/04/21 00:45:22;;;;;;;9.68;6.82;;;11.90;94.50;;;;;;5068334;28;20021;-57
2022/04/21 00:47:49;;;;;;;10.52;6.15;;;11.90;94.50;;;;;;5069694;28;20036;-56
2022/04/21 00:50:22;;;;;;;10.75;6.65;;;12.00;94.50;;;;;;5070020;28;20021;-57
2022/04/21 00:52:50;;;;;;;13.88;7.38;;;12.00;94.60;;;;;;5070882;28;20036;-57
2022/04/21 00:55:16;;;;;;;10.07;6.65;;;11.90;94.70;;;;;;5068576;28;20027;-57
2022/04/21 00:57:45;;;;;;;8.63;6.80;;;11.90;94.70;;;;;;5070784;28;20658;-58
2022/04/21 01:00:11;;;;;;;11.65;6.45;;;11.90;94.70;;;;;;5070117;28;20029;-57
2022/04/21 01:02:50;;;;;;;10.27;6.75;;;12.00;94.80;;;;;;5070063;28;20500;-57
2022/04/21 01:05:32;;;;;;;16.25;7.50;;;12.00;94.70;;;;;;5069557;28;20082;-57
2022/04/21 01:07:59;;;;;;;9.50;6.85;;;12.00;94.70;;;;;;5069811;28;20095;-57
2022/04/21 01:10:26;;;;;;;8.68;6.90;;;11.90;95.00;;;;;;5067539;28;20032;-57
2022/04/21 01:12:52;;;;;;;10.07;7.25;;;11.80;95.20;;;;;;5070136;28;20021;-57
2022/04/21 01:15:18;;;;;;;17.40;9.77;;;11.80;95.30;;;;;;5070015;28;20542;-56
2022/04/21 01:17:45;;;;;;;18.63;12.98;;;11.80;95.40;;;;;;5070689;28;20359;-57
2022/04/21 01:20:14;;;;;;;17.75;10.43;;;11.80;95.30;;;;;;5070164;28;20478;-57
2022/04/21 01:22:40;;;;;;;26.65;12.07;;;11.80;95.60;;;;;;5069876;28;20377;-57
2022/04/21 01:25:06;;;;;;;19.58;11.98;;;11.70;95.70;;;;;;5069618;28;20029;-57
2022/04/21 01:27:33;;;;;;;16.85;11.25;;;11.70;96.00;;;;;;5069352;28;20052;-57
2022/04/21 01:30:01;;;;;;;17.95;11.45;;;11.60;96.20;;;;;;5069477;28;20098;-57
2022/04/21 01:32:26;;;;;;;20.25;11.43;;;11.60;96.60;;;;;;5068962;28;20107;-57
2022/04/21 01:34:52;;;;;;;15.95;10.98;;;11.60;96.70;;;;;;5069361;28;20135;-57
2022/04/21 01:42:47;;;;;;;15.30;9.80;;;11.50;97.00;;;;;;5049998;28;20075;-57
2022/04/21 01:45:13;;;;;;;14.77;9.32;;;11.50;97.00;;;;;;5049822;28;20013;-57
2022/04/21 01:47:39;;;;;;;13.38;9.35;;;11.40;97.50;;;;;;5050029;28;20096;-57
2022/04/21 01:50:07;;;;;;;17.40;11.13;;;11.30;97.70;;;;;;5053914;28;20029;-57
2022/04/21 01:52:35;;;;;;;17.27;9.20;;;11.30;97.90;;;;;;5052063;28;20056;-57
2022/04/21 01:55:01;;;;;;;15.63;9.23;;;11.30;98.20;;;;;;5053235;28;20035;-57
2022/04/21 01:57:27;;;;;;;16.67;9.27;;;11.30;98.30;;;;;;5053103;28;20040;-57
2022/04/21 01:59:52;;;;;;;16.42;9.40;;;11.30;98.40;;;;;;5053495;28;20438;-57
2022/04/21 02:02:18;;;;;;;11.35;8.55;;;11.40;98.30;;;;;;5054064;28;20166;-57
2022/04/21 02:04:44;;;;;;;14.20;9.85;;;11.20;98.70;;;;;;5053356;28;20025;-57
2022/04/21 02:07:09;;;;;;;11.90;7.93;;;11.20;99.00;;;;;;5052975;28;20021;-58
2022/04/21 02:09:35;;;;;;;12.60;8.38;;;11.30;99.10;;;;;;5053055;28;20189;-57
2022/04/21 02:12:01;;;;;;;11.02;7.65;;;11.50;98.40;;;;;;5052874;28;20027;-57
2022/04/21 02:14:27;;;;;;;15.40;7.57;;;11.50;98.30;;;;;;5087063;28;20033;-58
2022/04/21 02:16:52;;;;;;;12.20;7.55;;;11.30;98.70;;;;;;5074004;28;20035;-58
2022/04/21 02:19:18;;;;;;;13.75;8.18;;;11.20;99.20;;;;;;5072970;28;20072;-58
2022/04/21 02:21:43;;;;;;;11.57;7.60;;;11.10;99.70;;;;;;5072337;28;20377;-58
2022/04/21 02:24:10;;;;;;;12.93;8.45;;;11.00;99.90;;;;;;5072637;28;20028;-58
2022/04/21 02:26:35;;;;;;;12.95;10.13;;;11.00;99.90;;;;;;5073130;28;20386;-58
2022/04/21 02:29:01;;;;;;;12.13;8.70;;;11.00;99.90;;;;;;5073040;28;20052;-58
2022/04/21 02:31:27;;;;;;;13.45;8.57;;;11.00;99.90;;;;;;5072913;28;20314;-58
2022/04/21 02:33:52;;;;;;;15.70;9.82;;;11.00;99.90;;;;;;5072984;28;20051;-57
2022/04/21 02:36:18;;;;;;;17.75;9.43;;;11.00;99.90;;;;;;5072606;28;20067;-58
2022/04/21 02:38:43;;;;;;;13.63;8.40;;;11.00;99.90;;;;;;5072485;28;20078;-57
2022/04/21 02:41:09;;;;;;;12.15;8.85;;;10.90;99.90;;;;;;5073283;28;20063;-58
2022/04/21 02:43:35;;;;;;;14.68;8.95;;;10.90;99.90;;;;;;5072993;28;20305;-58
2022/04/21 02:46:02;;;;;;;14.15;9.40;;;10.80;99.90;;;;;;5071744;28;20032;-58
2022/04/21 02:48:28;;;;;;;11.95;8.80;;;10.80;99.90;;;;;;5073100;28;20064;-58
2022/04/21 02:50:53;;;;;;;20.60;9.00;;;10.80;99.90;;;;;;5072474;28;20016;-58
2022/04/21 02:57:19;;;;;;;10.75;8.02;;;10.80;99.90;;;;;;5072134;28;20024;-57
2022/04/21 02:58:50;;;;;;;11.77;7.88;;;10.80;99.90;;;;;;5072910;28;20060;-58
2022/04/21 03:01:16;;;;;;;16.17;8.30;;;10.80;99.90;;;;;;5072574;28;20477;-58
2022/04/21 03:03:41;;;;;;;12.18;8.23;;;10.70;99.90;;;;;;5073158;28;20035;-58
2022/04/21 03:06:07;;;;;;;11.25;8.25;;;10.70;99.90;;;;;;5072079;28;20096;-57
2022/04/21 03:08:32;;;;;;;9.75;7.93;;;10.70;99.90;;;;;;5072129;28;20350;-58
2022/04/21 03:10:58;;;;;;;15.38;7.82;;;10.60;99.90;;;;;;5072502;28;20029;-58
2022/04/21 03:13:24;;;;;;;14.70;8.63;;;10.70;99.90;;;;;;5072734;28;20489;-57
2022/04/21 03:15:49;;;;;;;11.55;7.57;;;10.60;99.90;;;;;;5072423;28;20056;-58
2022/04/21 03:18:15;;;;;;;12.75;7.65;;;10.60;99.90;;;;;;5070889;28;20120;-58
2022/04/21 03:26:14;;;;;;;10.73;7.55;;;10.50;99.90;;;;;;5071870;28;20035;-57
2022/04/21 03:28:40;;;;;;;10.68;7.40;;;10.50;99.90;;;;;;5072061;28;20368;-58
2022/04/21 03:31:05;;;;;;;11.73;8.30;;;10.40;99.90;;;;;;5071861;28;20024;-57
2022/04/21 03:33:31;;;;;;;12.65;8.93;;;10.40;99.90;;;;;;5071683;28;20059;-58
2022/04/21 03:35:56;;;;;;;12.23;8.27;;;10.40;99.90;;;;;;5071261;28;20078;-57
2022/04/21 03:38:22;;;;;;;10.38;7.85;;;10.50;99.90;;;;;;5071534;28;20048;-57
2022/04/21 03:40:48;;;;;;;13.57;8.85;;;10.40;99.90;;;;;;5071241;28;20078;-57
2022/04/21 03:43:13;;;;;;;11.65;8.68;;;10.40;99.90;;;;;;5071495;28;20417;-57
2022/04/21 03:45:39;;;;;;;11.98;8.15;;;10.40;99.90;;;;;;5071561;28;20025;-58
2022/04/21 03:48:05;;;;;;;13.65;8.32;;;10.40;99.90;;;;;;5070104;28;20029;-56
2022/04/21 03:50:31;;;;;;;11.80;8.25;;;10.40;99.90;;;;;;5070322;28;20021;-57
2022/04/21 03:52:57;;;;;;;15.27;8.27;;;10.40;99.90;;;;;;5071345;28;20078;-57
2022/04/21 03:55:23;;;;;;;9.27;7.95;;;10.30;99.90;;;;;;5070959;28;20028;-58
2022/04/21 03:57:48;;;;;;;14.20;8.35;;;10.30;99.90;;;;;;5071005;28;20032;-57
2022/04/21 04:00:14;;;;;;;12.45;8.32;;;10.30;99.90;;;;;;5071037;28;20032;-58
2022/04/21 04:02:40;;;;;;;12.07;8.35;;;10.30;99.90;;;;;;5069629;28;20016;-58
2022/04/21 04:05:06;;;;;;;12.90;8.32;;;10.30;99.90;;;;;;5070834;28;20028;-58
2022/04/21 04:13:00;;;;;;;13.35;8.73;;;10.10;99.90;;;;;;5070770;28;20521;-57
2022/04/21 04:15:25;;;;;;;12.07;7.90;;;10.00;99.90;;;;;;5071467;28;20028;-57
2022/04/21 04:17:51;;;;;;;13.55;9.13;;;9.90;99.90;;;;;;5070817;28;20052;-57
2022/04/21 04:20:17;;;;;;;11.73;7.95;;;9.90;99.90;;;;;;5069806;28;20127;-58
2022/04/21 04:22:42;;;;;;;12.65;8.45;;;9.80;99.90;;;;;;5085930;28;20032;-57
2022/04/21 04:25:09;;;;;;;11.77;8.70;;;9.80;99.90;;;;;;5071287;28;20092;-57
2022/04/21 04:27:36;;;;;;;10.93;8.05;;;9.80;99.90;;;;;;5070735;28;20099;-58
2022/04/21 04:30:05;;;;;;;11.48;8.13;;;9.80;99.90;;;;;;5071111;28;20021;-58
2022/04/21 04:32:31;;;;;;;11.45;8.75;;;9.80;99.90;;;;;;5071071;28;20405;-58
2022/04/21 04:34:56;;;;;;;17.45;9.40;;;9.80;99.90;;;;;;5071054;28;20040;-57
2022/04/21 04:37:22;;;;;;;15.50;8.52;;;9.80;99.90;;;;;;5071029;28;20044;-58
2022/04/21 04:39:48;;;;;;;9.73;8.63;;;9.80;99.90;;;;;;5071246;28;20107;-58
2022/04/21 04:42:16;;;;;;;18.52;9.80;;;9.80;99.90;;;;;;5071247;28;20020;-58
2022/04/21 04:44:46;;;;;;;15.90;9.20;;;9.90;99.90;;;;;;5070452;28;20389;-57
2022/04/21 04:47:12;;;;;;;18.15;9.57;;;10.00;99.90;;;;;;5070800;28;20289;-58
2022/04/21 04:49:38;;;;;;;18.08;9.20;;;9.80;99.90;;;;;;5070629;28;20036;-58
2022/04/21 04:52:05;;;;;;;15.65;9.07;;;9.80;99.90;;;;;;5070769;28;20024;-58
2022/04/21 04:54:30;;;;;;;16.02;9.07;;;9.80;99.90;;;;;;5069410;28;20108;-58
2022/04/21 04:56:57;;;;;;;19.90;10.13;;;9.80;99.90;;;;;;5071167;28;20107;-58
2022/04/21 04:59:23;;;;;;;13.05;8.63;;;9.80;99.90;;;;;;5069853;28;20027;-58
2022/04/21 05:01:48;;;;;;;16.33;9.13;;;9.80;99.90;;;;;;5071122;28;20028;-57
2022/04/21 05:04:21;;;;;;;14.77;8.82;;;10.00;99.90;;;;;;5086216;28;20062;-57
2022/04/21 05:06:50;;;;;;;11.98;8.45;;;10.00;99.90;;;;;;5070481;28;20039;-57
2022/04/21 05:09:18;;;;;;;13.25;8.82;;;9.90;99.90;;;;;;5070495;28;20067;-57
2022/04/21 05:11:46;;;;;;;13.95;8.98;;;9.90;99.90;;;;;;5070388;28;20029;-57
2022/04/21 05:14:13;;;;;;;15.27;8.23;;;10.10;99.90;;;;;;5070969;28;20078;-57
2022/04/21 05:16:39;;;;;;;11.95;8.40;;;10.20;99.90;;;;;;5069296;28;20440;-57
2022/04/21 05:19:07;;;;;;;15.25;8.70;;;10.30;99.90;;;;;;5070493;28;20021;-57
2022/04/21 05:21:34;;;;;;;18.80;9.02;;;10.40;99.90;;;;;;5070341;28;20016;-58
2022/04/21 05:24:00;;;;;;;13.02;8.52;;;10.30;99.90;;;;;;5072581;28;20056;-57
2022/04/21 05:26:28;;;;;;;16.63;8.80;;;10.20;99.90;;;;;;5073394;28;20017;-58
2022/04/21 05:28:54;;;;;;;20.60;9.85;;;10.20;99.90;;;;;;5073799;28;20031;-56
2022/04/21 05:31:21;;;;;;;16.33;8.60;;;10.10;99.90;;;;;;5074301;28;20028;-58
2022/04/21 05:33:47;;;;;;;15.57;9.10;;;10.10;99.90;;;;;;5072931;28;20059;-57
2022/04/21 05:36:13;;;;;;;12.93;9.38;;;10.20;99.90;;;;;;5073776;28;20155;-57
2022/04/21 05:38:39;;;;;;;14.18;9.00;;;10.20;99.90;;;;;;5073421;28;20032;-57
2022/04/21 05:41:05;;;;;;;14.15;9.52;;;10.20;99.90;;;;;;5073605;28;20017;-56
2022/04/21 05:43:42;;;;;;;16.27;8.90;;;10.10;99.90;;;;;;5074186;28;20021;-58
2022/04/21 05:46:09;;;;;;;13.30;8.75;;;10.20;99.90;;;;;;5080523;28;20048;-57
2022/04/21 05:48:36;;;;;;;11.57;8.93;;;10.30;99.90;;;;;;5072807;28;20016;-58
2022/04/21 05:51:03;;;;;;;20.15;8.93;;;10.50;99.90;;;;;;5073286;28;20460;-58
2022/04/21 05:53:32;;;;;;;16.30;8.85;;;10.40;99.90;;;;;;5073620;28;20074;-58
2022/04/21 05:55:58;;;;;;;10.57;8.52;;;10.60;99.90;;;;;;5071015;28;20369;-58
2022/04/21 05:58:25;;;;;;;20.35;8.57;;;10.80;99.90;;;;;;5069817;28;20095;-58
2022/04/21 06:00:50;;;;;;;16.67;7.97;;;10.80;99.90;;;;;;5069490;28;20060;-57
2022/04/21 06:03:16;;;;;;;15.15;8.13;;;10.80;99.90;;;;;;5072236;28;20035;-58
2022/04/21 06:05:42;;;;;;;29.80;10.10;;;10.80;99.90;;;;;;5074647;28;21980;-58
2022/04/21 06:08:07;;;;;;;16.10;7.40;;;10.90;99.90;;;;;;5058490;28;20056;-57
2022/04/21 06:10:34;;;;;;;13.10;7.55;;;11.00;99.90;;;;;;5061802;28;20028;-57
2022/04/21 06:13:02;;;;;;;10.45;7.40;;;11.00;99.90;;;;;;5059486;28;20040;-57
2022/04/21 06:15:30;;;;;;;10.85;7.50;;;11.10;99.90;;;;;;5058030;28;20148;-57
2022/04/21 06:17:56;;;;;;;10.68;7.00;;;11.20;99.90;;;;;;5056836;28;20505;-57
2022/04/21 06:20:22;;;;;;;9.25;6.93;;;11.60;99.90;;;;;;5059486;28;20036;-57
2022/04/21 06:22:47;;;;;;;10.43;6.95;;;11.70;99.90;;;;;;5057641;28;20036;-57
2022/04/21 06:25:13;;;;;;;11.52;6.80;;;11.70;99.90;;;;;;5056740;28;20021;-58
2022/04/21 06:27:39;;;;;;;13.98;7.30;;;11.80;99.90;;;;;;5059310;28;20044;-57
2022/04/21 06:30:05;;;;;;;15.93;7.22;;;11.80;99.90;;;;;;5056953;28;20028;-58
2022/04/21 06:32:31;;;;;;;10.55;6.93;;;11.90;99.90;;;;;;5058334;28;20024;-58
2022/04/21 06:34:57;;;;;;;16.85;7.40;;;12.00;99.90;;;;;;5053469;28;20489;-58
2022/04/21 06:37:23;;;;;;;9.23;6.78;;;12.10;99.90;;;;;;5058861;28;20036;-58
2022/04/21 06:39:49;;;;;;;15.13;6.72;;;12.30;99.90;;;;;;5068507;28;20037;-58
2022/04/21 06:42:14;;;;;;;10.48;6.68;;;12.30;99.90;;;;;;5057499;28;20017;-58
2022/04/21 06:50:09;;;;;;;12.63;6.60;;;12.40;99.90;;;;;;5055870;28;20130;-57
2022/04/21 06:52:36;;;;;;;12.00;6.43;;;12.40;99.90;;;;;;5055887;28;20033;-58
2022/04/21 06:55:03;;;;;;;13.55;5.97;;;12.50;99.90;;;;;;5055492;28;20037;-58
2022/04/21 06:57:29;;;;;;;14.05;7.07;;;12.50;99.90;;;;;;5063315;28;20038;-57
2022/04/21 06:59:55;;;;;;;16.55;7.22;;;12.50;99.90;;;;;;5054023;28;20024;-58
2022/04/21 07:02:31;;;;;;;34.22;9.60;;;12.40;99.90;;;;;;5051551;28;20405;-58
2022/04/21 07:05:13;;;;;;;13.30;7.00;;;12.50;99.90;;;;;;5054975;28;20063;-58
2022/04/21 07:07:40;;;;;;;11.60;6.23;;;12.60;99.90;;;;;;5061395;28;20028;-58
2022/04/21 07:10:07;;;;;;;15.07;5.95;;;12.60;99.90;;;;;;5059857;28;20090;-57
2022/04/21 07:12:33;;;;;;;11.68;6.30;;;12.70;99.90;;;;;;5057226;28;20037;-57
2022/04/21 07:15:07;;;;;;;12.18;6.57;;;12.70;99.90;;;;;;5065143;28;20529;-58
2022/04/21 07:17:34;;;;;;;11.13;5.85;;;13.00;99.90;;;;;;5051187;28;20048;-58
2022/04/21 07:20:03;;;;;;;16.13;5.65;;;14.00;99.90;;;;;;5056442;28;20036;-58
2022/04/21 07:22:29;;;;;;;9.88;4.88;;;15.30;97.10;;;;;;5076587;28;20363;-57
2022/04/21 07:24:56;;;;;;;6.65;5.00;;;15.90;93.90;;;;;;5056128;28;20036;-57
2022/04/21 07:27:22;;;;;;;13.85;6.03;;;15.90;93.60;;;;;;5058956;28;20028;-57
2022/04/21 07:29:49;;;;;;;8.68;5.18;;;16.60;92.40;;;;;;5059107;28;20036;-56
2022/04/21 07:32:15;;;;;;;6.88;4.80;;;17.20;90.50;;;;;;5058761;28;20444;-56
2022/04/21 07:34:41;;;;;;;9.75;4.93;;;17.90;88.80;;;;;;5058167;28;20051;-56
2022/04/21 07:37:08;;;;;;;7.22;4.70;;;18.10;86.30;;;;;;5058596;28;20041;-56
2022/04/21 07:39:35;;;;;;;12.02;4.72;;;18.30;86.10;;;;;;5056015;28;20040;-56
2022/04/21 07:42:01;;;;;;;9.18;5.28;;;19.30;81.80;;;;;;5053736;28;20025;-56
2022/04/21 07:44:27;;;;;;;13.23;4.40;;;19.80;79.70;;;;;;5045751;28;20055;-56
2022/04/21 07:46:53;;;;;;;7.22;3.80;;;19.10;78.90;;;;;;5061809;28;20021;-56
2022/04/21 07:54:48;;;;;;;7.93;4.05;;;19.30;78.00;;;;;;5051503;28;20101;-56
2022/04/21 07:57:14;;;;;;;5.75;3.80;;;19.70;75.80;;;;;;5048785;28;20425;-57
2022/04/21 07:59:39;;;;;;;15.35;4.95;;;19.50;75.00;;;;;;5049253;28;20040;-56
2022/04/21 08:02:08;;;;;;;6.30;4.25;;;19.60;75.80;;;;;;5050928;28;20124;-56
2022/04/21 08:04:37;;;;;;;20.85;5.70;;;19.30;75.60;;;;;;5046475;28;20047;-58
2022/04/21 08:07:04;;;;;;;7.95;4.15;;;19.90;74.10;;;;;;5045341;28;20028;-56
2022/04/21 08:09:29;;;;;;;15.27;4.50;;;19.90;73.10;;;;;;5046606;28;20025;-56
2022/04/21 08:11:56;;;;;;;6.95;4.10;;;20.00;72.50;;;;;;5044895;28;20028;-56
2022/04/21 08:14:21;;;;;;;27.83;5.93;;;19.80;71.70;;;;;;5035626;28;20068;-56
2022/04/21 08:16:47;;;;;;;20.52;4.40;;;19.90;72.40;;;;;;5045395;28;20131;-56
2022/04/21 08:19:13;;;;;;;15.52;4.50;;;20.00;71.20;;;;;;5047981;28;20037;-56
2022/04/21 08:21:38;;;;;;;16.25;5.13;;;20.20;70.60;;;;;;5049872;28;20424;-56
2022/04/21 08:32:36;;;;;;;7.65;3.95;;;20.20;73.00;;;;;;5045524;28;20512;-56
2022/04/21 08:35:03;;;;;;;6.68;3.60;;;20.40;70.50;;;;;;5045843;28;20036;-56
2022/04/21 08:37:33;;;;;;;10.43;4.03;;;20.50;70.80;;;;;;5045642;28;20440;-56
2022/04/21 08:40:00;;;;;;;10.93;4.22;;;20.40;70.30;;;;;;5046905;28;20040;-57
2022/04/21 08:42:29;;;;;;;9.35;4.07;;;20.20;71.40;;;;;;5045054;28;20476;-56
2022/04/21 08:44:59;;;;;;;10.43;4.38;;;20.30;71.10;;;;;;5049232;28;20091;-56
2022/04/21 08:47:28;;;;;;;7.05;3.78;;;20.30;70.60;;;;;;5045613;28;20709;-56
2022/04/21 08:50:05;;;;;;;4.47;3.75;;;20.10;71.60;;;;;;5047481;28;20021;-56
2022/04/21 08:52:32;;;;;;;9.07;4.22;;;20.50;70.80;;;;;;5045624;28;20043;-57
2022/04/21 08:54:57;;;;;;;6.82;3.78;;;20.70;70.10;;;;;;5042713;28;20056;-56
2022/04/21 08:57:23;;;;;;;9.00;3.70;;;20.40;70.40;;;;;;5044915;28;20059;-57
2022/04/21 08:59:49;;;;;;;8.75;4.00;;;20.80;71.40;;;;;;5050127;28;20035;-57
2022/04/21 09:02:14;;;;;;;6.18;3.50;;;21.20;68.10;;;;;;5053508;28;20107;-56
2022/04/21 09:04:43;;;;;;;8.85;3.60;;;20.30;69.90;;;;;;5048457;28;20024;-57
2022/04/21 09:07:18;;;;;;;5.93;3.72;;;20.70;69.40;;;;;;5046688;28;20035;-57
2022/04/21 09:10:04;;;;;;;7.75;3.67;;;20.90;68.50;;;;;;5052635;28;21250;-57
2022/04/21 09:12:30;;;;;;;8.30;3.83;;;21.20;68.30;;;;;;5046532;28;20155;-57
2022/04/21 09:14:57;;;;;;;46.45;7.50;;;20.80;68.50;;;;;;5046628;28;20043;-57
2022/04/21 09:17:23;;;;;;;8.68;3.60;;;21.10;68.80;;;;;;5048447;28;20037;-58
2022/04/21 09:20:00;;;;;;;9.93;3.30;;;21.20;66.20;;;;;;5048151;28;20543;-59
2022/04/21 09:22:32;;;;;;;4.72;2.97;;;21.40;67.50;;;;;;5049022;28;20029;-58
2022/04/21 09:24:59;;;;;;;5.60;3.05;;;22.00;65.40;;;;;;5043483;28;20090;-58
2022/04/21 09:27:36;;;;;;;6.88;3.65;;;22.00;65.00;;;;;;5045796;28;20028;-58
2022/04/21 09:30:03;;;;;;;10.40;3.47;;;22.10;64.50;;;;;;5048052;28;20041;-57
2022/04/21 09:32:28;;;;;;;6.43;3.45;;;22.10;64.00;;;;;;5048193;28;20433;-57
2022/04/21 09:34:56;;;;;;;6.40;2.85;;;22.20;64.80;;;;;;5053692;28;20129;-57
2022/04/21 09:37:22;;;;;;;7.30;3.30;;;22.40;63.20;;;;;;5051040;28;20439;-58
2022/04/21 09:39:51;;;;;;;11.77;3.17;;;22.90;62.30;;;;;;5049831;28;20053;-57
2022/04/21 09:42:27;;;;;;;9.07;3.22;;;23.00;61.00;;;;;;5047186;28;20029;-57
2022/04/21 09:47:51;;;;;;;7.18;2.70;;;22.80;61.70;;;;;;5054071;28;20089;-57
2022/04/21 09:50:17;;;;;;;4.90;2.58;;;22.70;62.10;;;;;;5051341;28;20028;-58
2022/04/21 09:52:53;;;;;;;8.75;2.92;;;22.50;63.00;;;;;;5051546;28;20042;-57
2022/04/21 09:55:27;;;;;;;12.32;3.25;;;22.90;62.00;;;;;;5047448;28;20150;-58
2022/04/21 09:58:05;;;;;;;5.95;2.50;;;23.20;59.60;;;;;;5051725;28;20028;-58
2022/04/21 10:00:31;;;;;;;4.85;2.70;;;23.40;60.40;;;;;;5046957;28;20059;-58
2022/04/21 10:02:59;;;;;;;5.97;2.83;;;23.80;59.60;;;;;;5048254;28;20055;-57
2022/04/21 10:05:25;;;;;;;10.38;2.83;;;23.20;60.00;;;;;;5055309;28;20110;-57
2022/04/21 10:07:53;;;;;;;6.60;2.72;;;22.20;59.80;;;;;;5050543;28;20040;-57
2022/04/21 10:10:19;;;;;;;12.60;3.20;;;21.70;62.70;;;;;;5049454;28;20321;-57
2022/04/21 10:12:46;;;;;;;5.55;2.65;;;22.40;62.10;;;;;;5053073;28;20397;-57
2022/04/21 10:15:11;;;;;;;6.00;2.67;;;23.50;60.30;;;;;;5052792;28;20028;-58
2022/04/21 10:17:37;;;;;;;4.28;3.08;;;23.60;58.90;;;;;;5055161;28;20089;-57
2022/04/21 10:20:04;;;;;;;5.13;2.58;;;24.30;58.60;;;;;;5048654;28;20044;-57
2022/04/21 10:22:34;;;;;;;4.07;2.47;;;24.70;58.00;;;;;;5047318;28;20027;-58
2022/04/21 10:25:01;;;;;;;7.10;2.72;;;25.40;56.00;;;;;;5048052;28;20043;-58
2022/04/21 10:27:56;;;;;;;4.70;3.28;;;25.70;56.10;;;;;;5046449;28;20065;-58
2022/04/21 10:30:25;;;;;;;8.25;3.53;;;25.40;54.50;;;;;;5046772;28;20043;-57
2022/04/21 10:32:55;;;;;;;10.13;3.42;;;24.30;56.90;;;;;;5052697;28;20564;-57
2022/04/21 10:35:45;;;;;;;11.20;3.17;;;24.00;58.10;;;;;;5049371;28;20032;-59
2022/04/21 10:38:13;;;;;;;13.90;2.90;;;24.30;57.70;;;;;;5050477;28;20037;-60
2022/04/21 10:41:02;;;;;;;12.90;3.25;;;25.10;56.10;;;;;;5046204;28;20028;-59
2022/04/21 10:44:01;;;;;;;14.85;3.58;;;24.40;55.80;;;;;;5048516;28;20025;-58
2022/04/21 10:46:29;;;;;;;9.57;3.95;;;24.00;56.70;;;;;;5045606;28;20037;-58
2022/04/21 10:48:55;;;;;;;8.25;3.75;;;23.40;57.30;;;;;;5050927;28;20025;-58
2022/04/21 10:57:36;;;;;;;11.25;4.22;;;24.00;57.00;;;;;;5047857;28;20174;-59
2022/04/21 11:00:03;;;;;;;8.70;3.80;;;24.90;56.00;;;;;;5045401;28;20036;-59
2022/04/21 11:02:45;;;;;;;8.38;3.55;;;25.30;56.20;;;;;;5046294;28;20033;-59
2022/04/21 11:05:23;;;;;;;8.20;3.07;;;25.80;54.00;;;;;;5052539;28;20038;-59
2022/04/21 11:07:57;;;;;;;8.57;3.50;;;25.60;55.50;;;;;;5050335;28;20489;-58
2022/04/21 11:10:38;;;;;;;5.50;3.60;;;25.80;53.90;;;;;;5038214;28;20036;-57
2022/04/21 11:13:11;;;;;;;6.65;3.30;;;25.50;53.90;;;;;;5041185;28;20029;-58
2022/04/21 11:15:50;;;;;;;9.52;3.00;;;24.90;54.70;;;;;;5048047;28;20039;-58
2022/04/21 11:18:31;;;;;;;6.63;3.17;;;24.70;53.90;;;;;;5045075;28;20354;-59
2022/04/21 11:21:49;;;;;;;11.35;2.92;;;24.40;54.00;;;;;;5041815;28;20072;-58
2022/04/21 11:24:15;;;;;;;9.45;2.92;;;25.10;54.10;;;;;;5026721;28;20688;-58
2022/04/21 11:26:41;;;;;;;8.38;3.60;;;25.60;53.50;;;;;;5047983;28;20040;-58
2022/04/21 11:29:07;;;;;;;8.43;3.00;;;25.80;52.70;;;;;;5046726;28;20079;-58
2022/04/21 11:31:33;;;;;;;11.35;3.25;;;25.30;52.60;;;;;;5048953;28;20529;-58
2022/04/21 11:34:02;;;;;;;7.65;3.45;;;25.70;52.90;;;;;;5047251;28;20477;-58
2022/04/21 11:36:36;;;;;;;7.35;3.35;;;26.10;52.70;;;;;;5048509;28;20093;-59
2022/04/21 11:39:06;;;;;;;6.07;3.15;;;26.40;51.80;;;;;;5043977;28;20480;-58
2022/04/21 11:41:32;;;;;;;9.55;3.47;;;26.20;51.80;;;;;;5044906;28;20043;-58
2022/04/21 11:43:58;;;;;;;6.43;3.45;;;25.70;51.50;;;;;;5048504;28;20021;-58
2022/04/21 11:46:24;;;;;;;6.35;3.50;;;25.10;52.80;;;;;;5042771;28;20032;-58
2022/04/21 11:49:00;;;;;;;6.82;3.58;;;25.50;52.50;;;;;;5047876;28;21590;-58
2022/04/21 11:51:26;;;;;;;7.22;3.40;;;25.40;52.90;;;;;;5046259;28;20500;-58
2022/04/21 11:53:52;;;;;;;7.00;3.78;;;25.30;51.10;;;;;;5047579;28;20141;-58
2022/04/21 11:56:19;;;;;;;12.52;3.63;;;25.10;52.30;;;;;;5046071;28;20025;-58
2022/04/21 11:58:45;;;;;;;6.75;3.50;;;25.00;54.00;;;;;;5047024;28;20513;-58
2022/04/21 12:06:49;;;;;;;8.65;3.20;;;26.00;51.00;;;;;;5048114;28;20039;-58
2022/04/21 12:09:17;;;;;;;7.93;3.50;;;26.60;50.30;;;;;;5051872;28;20161;-58
2022/04/21 12:11:47;;;;;;;10.75;3.25;;;27.30;48.30;;;;;;5047865;28;20032;-58
2022/04/21 12:14:15;;;;;;;7.15;3.30;;;26.50;50.10;;;;;;5048879;28;20060;-59
2022/04/21 12:16:47;;;;;;;5.22;3.50;;;26.60;49.20;;;;;;5047185;28;20071;-58
2022/04/21 12:19:16;;;;;;;6.20;3.40;;;26.60;49.90;;;;;;5044958;28;20520;-58
2022/04/21 12:21:43;;;;;;;8.23;4.18;;;26.50;49.70;;;;;;5048912;28;20656;-60
2022/04/21 12:24:18;;;;;;;6.03;3.08;;;26.80;49.60;;;;;;5051717;28;20111;-58
2022/04/21 12:26:48;;;;;;;7.88;3.65;;;27.50;47.90;;;;;;5051475;28;20519;-58
2022/04/21 12:29:14;;;;;;;9.38;3.17;;;27.70;47.40;;;;;;5051249;28;20125;-59
2022/04/21 12:31:48;;;;;;;10.77;3.50;;;27.20;46.20;;;;;;5049913;28;20493;-58
2022/04/21 12:34:30;;;;;;;9.82;3.58;;;27.10;47.40;;;;;;5048063;28;20041;-58
2022/04/21 12:37:01;;;;;;;11.48;3.50;;;26.50;47.40;;;;;;5049895;28;20017;-57
2022/04/21 12:39:29;;;;;;;7.23;3.30;;;25.50;49.40;;;;;;5049181;28;20043;-57
2022/04/21 12:41:56;;;;;;;9.77;3.70;;;25.50;49.80;;;;;;5051382;28;20275;-57
2022/04/21 12:44:25;;;;;;;5.28;3.17;;;25.30;48.80;;;;;;5052602;28;20104;-58
2022/04/21 12:47:18;;;;;;;5.53;3.13;;;25.80;49.40;;;;;;5046599;28;20033;-58
2022/04/21 12:50:01;;;;;;;5.22;3.60;;;26.80;48.20;;;;;;5048226;28;20048;-58
2022/04/21 12:52:44;;;;;;;4.57;3.28;;;27.20;47.20;;;;;;5051868;28;20055;-58
2022/04/21 12:55:17;;;;;;;6.72;3.50;;;27.20;46.50;;;;;;5049790;28;20040;-58
2022/04/21 12:58:24;;;;;;;6.63;3.58;;;26.70;47.10;;;;;;5044077;28;20472;-57
2022/04/21 13:00:50;;;;;;;7.40;3.30;;;26.60;48.00;;;;;;5048621;28;20115;-58
2022/04/21 13:03:15;;;;;;;8.85;3.20;;;26.30;47.40;;;;;;5049493;28;20730;-58
2022/04/21 13:05:47;;;;;;;8.10;3.22;;;26.70;48.10;;;;;;5047487;28;20025;-57
2022/04/21 13:08:13;;;;;;;18.33;3.58;;;26.30;47.20;;;;;;5051161;28;20064;-58
2022/04/21 13:10:38;;;;;;;5.10;2.85;;;27.00;48.80;;;;;;5053612;28;20046;-58
2022/04/21 13:13:04;;;;;;;6.40;3.30;;;27.60;46.50;;;;;;5056793;28;20435;-58
2022/04/21 13:15:29;;;;;;;11.65;2.95;;;27.60;45.60;;;;;;5047289;28;20060;-58
2022/04/21 13:17:56;;;;;;;7.43;3.30;;;27.80;48.00;;;;;;5049872;28;20044;-58
2022/04/21 13:23:06;;;;;;;7.13;2.60;;;27.90;44.40;;;;;;5051755;28;20032;-57
2022/04/21 13:25:31;;;;;;;3.15;2.78;;;27.10;45.80;;;;;;5052274;28;20008;-57
2022/04/21 13:27:57;;;;;;;4.80;2.75;;;26.50;45.60;;;;;;5052471;28;20536;-57
2022/04/21 13:30:23;;;;;;;7.03;3.33;;;26.40;46.00;;;;;;5060374;28;20028;-58
2022/04/21 13:35:32;;;;;;;7.65;2.90;;;26.90;46.00;;;;;;5060966;28;20047;-57
2022/04/21 13:37:58;;;;;;;6.45;3.00;;;26.50;48.30;;;;;;5061868;28;20714;-58
2022/04/21 13:40:24;;;;;;;9.60;3.42;;;26.90;45.50;;;;;;5057701;28;20033;-58
2022/04/21 13:42:49;;;;;;;5.43;3.75;;;27.00;46.50;;;;;;5060246;28;20374;-58
2022/04/21 13:45:15;;;;;;;5.72;3.30;;;27.20;45.70;;;;;;5057620;28;20559;-58